sensor_id;sensor_type;location;lat;lon;timestamp;P1;durP1;ratioP1;P2;durP2;ratioP2
81864;SDS011;71313;43.514;1.500;2023-08-31T00:00:07;3.45;;;1.30;;
81864;SDS011;71313;43.514;1.500;2023-08-31T00:02:36;3.38;;;1.60;;
81864;SDS011;71313;43.514;1.500;2023-08-31T00:05:04;3.65;;;1.58;;
81864;SDS011;71313;43.514;1.500;2023-08-31T00:07:30;4.97;;;1.48;;
81864;SDS011;71313;43.514;1.500;2023-08-31T00:09:55;2.85;;;1.48;;
81864;SDS011;71313;43.514;1.500;2023-08-31T00:12:21;3.40;;;1.73;;
81864;SDS011;71313;43.514;1.500;2023-08-31T00:14:47;3.15;;;1.30;;
81864;SDS011;71313;43.514;1.500;2023-08-31T00:17:14;4.45;;;1.58;;
81864;SDS011;71313;43.514;1.500;2023-08-31T00:19:40;3.55;;;1.50;;
81864;SDS011;71313;43.514;1.500;2023-08-31T00:22:05;2.15;;;1.33;;
81864;SDS011;71313;43.514;1.500;2023-08-31T00:24:31;8.35;;;1.73;;
81864;SDS011;71313;43.514;1.500;2023-08-31T00:26:58;2.40;;;1.50;;
81864;SDS011;71313;43.514;1.500;2023-08-31T00:29:24;3.28;;;1.42;;
81864;SDS011;71313;43.514;1.500;2023-08-31T00:31:50;4.45;;;1.50;;
81864;SDS011;71313;43.514;1.500;2023-08-31T00:34:18;3.25;;;1.20;;
81864;SDS011;71313;43.514;1.500;2023-08-31T00:36:43;3.20;;;1.50;;
81864;SDS011;71313;43.514;1.500;2023-08-31T00:39:09;3.47;;;1.50;;
81864;SDS011;71313;43.514;1.500;2023-08-31T00:41:36;4.00;;;1.58;;
81864;SDS011;71313;43.514;1.500;2023-08-31T00:44:02;2.03;;;1.55;;
81864;SDS011;71313;43.514;1.500;2023-08-31T00:46:29;2.83;;;1.60;;
81864;SDS011;71313;43.514;1.500;2023-08-31T00:48:56;3.22;;;1.40;;
81864;SDS011;71313;43.514;1.500;2023-08-31T00:51:22;3.33;;;1.45;;
81864;SDS011;71313;43.514;1.500;2023-08-31T00:53:48;3.17;;;1.40;;
81864;SDS011;71313;43.514;1.500;2023-08-31T00:56:16;2.88;;;1.48;;
81864;SDS011;71313;43.514;1.500;2023-08-31T00:58:43;3.42;;;1.30;;
81864;SDS011;71313;43.514;1.500;2023-08-31T01:01:11;2.65;;;1.48;;
81864;SDS011;71313;43.514;1.500;2023-08-31T01:06:27;6.32;;;1.80;;
81864;SDS011;71313;43.514;1.500;2023-08-31T01:08:57;4.03;;;1.30;;
81864;SDS011;71313;43.514;1.500;2023-08-31T01:11:41;4.45;;;1.30;;
81864;SDS011;71313;43.514;1.500;2023-08-31T01:14:31;2.13;;;1.40;;
81864;SDS011;71313;43.514;1.500;2023-08-31T01:16:59;3.25;;;1.45;;
81864;SDS011;71313;43.514;1.500;2023-08-31T01:22:29;3.28;;;1.33;;
81864;SDS011;71313;43.514;1.500;2023-08-31T01:24:59;3.20;;;1.63;;
81864;SDS011;71313;43.514;1.500;2023-08-31T01:27:29;2.63;;;1.23;;
81864;SDS011;71313;43.514;1.500;2023-08-31T01:29:56;2.53;;;1.40;;
81864;SDS011;71313;43.514;1.500;2023-08-31T01:32:22;3.35;;;1.40;;
81864;SDS011;71313;43.514;1.500;2023-08-31T01:34:47;2.20;;;1.33;;
81864;SDS011;71313;43.514;1.500;2023-08-31T01:37:16;2.60;;;1.40;;
81864;SDS011;71313;43.514;1.500;2023-08-31T01:39:47;2.95;;;1.20;;
81864;SDS011;71313;43.514;1.500;2023-08-31T01:42:17;3.15;;;1.30;;
81864;SDS011;71313;43.514;1.500;2023-08-31T01:44:43;2.47;;;1.35;;
81864;SDS011;71313;43.514;1.500;2023-08-31T01:47:13;1.90;;;1.30;;
81864;SDS011;71313;43.514;1.500;2023-08-31T01:49:41;2.78;;;1.30;;
81864;SDS011;71313;43.514;1.500;2023-08-31T01:52:08;2.75;;;1.33;;
81864;SDS011;71313;43.514;1.500;2023-08-31T01:54:34;4.65;;;1.70;;
81864;SDS011;71313;43.514;1.500;2023-08-31T01:57:00;2.15;;;1.50;;
81864;SDS011;71313;43.514;1.500;2023-08-31T01:59:25;2.53;;;1.30;;
81864;SDS011;71313;43.514;1.500;2023-08-31T02:01:52;3.00;;;1.50;;
81864;SDS011;71313;43.514;1.500;2023-08-31T02:04:17;2.75;;;1.58;;
81864;SDS011;71313;43.514;1.500;2023-08-31T02:06:43;2.95;;;1.40;;
81864;SDS011;71313;43.514;1.500;2023-08-31T02:09:08;2.58;;;1.25;;
81864;SDS011;71313;43.514;1.500;2023-08-31T02:11:34;3.72;;;1.40;;
81864;SDS011;71313;43.514;1.500;2023-08-31T02:14:03;2.83;;;1.40;;
81864;SDS011;71313;43.514;1.500;2023-08-31T02:16:29;3.80;;;1.35;;
81864;SDS011;71313;43.514;1.500;2023-08-31T02:18:55;2.05;;;1.30;;
81864;SDS011;71313;43.514;1.500;2023-08-31T02:21:20;3.40;;;1.42;;
81864;SDS011;71313;43.514;1.500;2023-08-31T02:23:46;2.15;;;1.27;;
81864;SDS011;71313;43.514;1.500;2023-08-31T02:26:11;2.60;;;1.45;;
81864;SDS011;71313;43.514;1.500;2023-08-31T02:28:37;2.30;;;1.25;;
81864;SDS011;71313;43.514;1.500;2023-08-31T02:31:02;2.63;;;1.40;;
81864;SDS011;71313;43.514;1.500;2023-08-31T02:33:28;3.08;;;1.60;;
81864;SDS011;71313;43.514;1.500;2023-08-31T02:35:54;2.40;;;1.52;;
81864;SDS011;71313;43.514;1.500;2023-08-31T02:38:20;4.13;;;1.40;;
81864;SDS011;71313;43.514;1.500;2023-08-31T02:40:48;2.67;;;1.60;;
81864;SDS011;71313;43.514;1.500;2023-08-31T02:43:14;4.30;;;1.60;;
81864;SDS011;71313;43.514;1.500;2023-08-31T02:45:40;2.58;;;1.50;;
81864;SDS011;71313;43.514;1.500;2023-08-31T02:48:08;3.40;;;1.60;;
81864;SDS011;71313;43.514;1.500;2023-08-31T02:50:34;2.55;;;1.50;;
81864;SDS011;71313;43.514;1.500;2023-08-31T02:52:59;3.38;;;1.70;;
81864;SDS011;71313;43.514;1.500;2023-08-31T02:55:25;2.55;;;1.35;;
81864;SDS011;71313;43.514;1.500;2023-08-31T02:57:50;3.15;;;1.50;;
81864;SDS011;71313;43.514;1.500;2023-08-31T03:00:15;2.83;;;1.50;;
81864;SDS011;71313;43.514;1.500;2023-08-31T03:02:41;2.78;;;1.70;;
81864;SDS011;71313;43.514;1.500;2023-08-31T03:05:08;3.25;;;1.50;;
81864;SDS011;71313;43.514;1.500;2023-08-31T03:07:34;1.90;;;1.40;;
81864;SDS011;71313;43.514;1.500;2023-08-31T03:09:59;3.20;;;1.40;;
81864;SDS011;71313;43.514;1.500;2023-08-31T03:12:24;2.92;;;1.50;;
81864;SDS011;71313;43.514;1.500;2023-08-31T03:14:50;2.70;;;1.60;;
81864;SDS011;71313;43.514;1.500;2023-08-31T03:17:15;2.85;;;1.50;;
81864;SDS011;71313;43.514;1.500;2023-08-31T03:19:41;1.77;;;1.27;;
81864;SDS011;71313;43.514;1.500;2023-08-31T03:22:06;1.90;;;1.20;;
81864;SDS011;71313;43.514;1.500;2023-08-31T03:24:34;5.20;;;1.60;;
81864;SDS011;71313;43.514;1.500;2023-08-31T03:27:00;3.70;;;1.20;;
81864;SDS011;71313;43.514;1.500;2023-08-31T03:29:25;3.88;;;1.40;;
81864;SDS011;71313;43.514;1.500;2023-08-31T03:31:51;2.63;;;1.70;;
81864;SDS011;71313;43.514;1.500;2023-08-31T03:34:16;3.90;;;1.58;;
81864;SDS011;71313;43.514;1.500;2023-08-31T03:36:42;2.25;;;1.30;;
81864;SDS011;71313;43.514;1.500;2023-08-31T03:39:08;3.25;;;1.50;;
81864;SDS011;71313;43.514;1.500;2023-08-31T03:41:34;2.95;;;1.40;;
81864;SDS011;71313;43.514;1.500;2023-08-31T03:44:00;3.95;;;1.40;;
81864;SDS011;71313;43.514;1.500;2023-08-31T03:46:26;2.95;;;1.65;;
81864;SDS011;71313;43.514;1.500;2023-08-31T03:48:51;3.55;;;1.38;;
81864;SDS011;71313;43.514;1.500;2023-08-31T03:51:17;4.18;;;1.70;;
81864;SDS011;71313;43.514;1.500;2023-08-31T03:53:42;2.67;;;1.50;;
81864;SDS011;71313;43.514;1.500;2023-08-31T03:56:09;3.72;;;1.65;;
81864;SDS011;71313;43.514;1.500;2023-08-31T03:58:34;2.47;;;1.30;;
81864;SDS011;71313;43.514;1.500;2023-08-31T04:00:59;2.30;;;1.30;;
81864;SDS011;71313;43.514;1.500;2023-08-31T04:03:25;2.00;;;1.50;;
81864;SDS011;71313;43.514;1.500;2023-08-31T04:05:54;4.20;;;1.55;;
81864;SDS011;71313;43.514;1.500;2023-08-31T04:08:20;3.17;;;1.63;;
81864;SDS011;71313;43.514;1.500;2023-08-31T04:10:45;4.03;;;1.60;;
81864;SDS011;71313;43.514;1.500;2023-08-31T04:13:10;3.10;;;1.50;;
81864;SDS011;71313;43.514;1.500;2023-08-31T04:15:36;3.42;;;1.48;;
81864;SDS011;71313;43.514;1.500;2023-08-31T04:18:01;3.10;;;1.52;;
81864;SDS011;71313;43.514;1.500;2023-08-31T04:20:27;2.92;;;1.42;;
81864;SDS011;71313;43.514;1.500;2023-08-31T04:22:52;3.33;;;1.67;;
81864;SDS011;71313;43.514;1.500;2023-08-31T04:25:18;3.25;;;1.65;;
81864;SDS011;71313;43.514;1.500;2023-08-31T04:27:43;3.25;;;1.35;;
81864;SDS011;71313;43.514;1.500;2023-08-31T04:30:10;3.50;;;1.45;;
81864;SDS011;71313;43.514;1.500;2023-08-31T04:32:36;2.95;;;1.52;;
81864;SDS011;71313;43.514;1.500;2023-08-31T04:35:02;2.15;;;1.15;;
81864;SDS011;71313;43.514;1.500;2023-08-31T04:37:30;3.42;;;1.30;;
81864;SDS011;71313;43.514;1.500;2023-08-31T04:39:55;2.78;;;1.25;;
81864;SDS011;71313;43.514;1.500;2023-08-31T04:42:20;3.20;;;1.45;;
81864;SDS011;71313;43.514;1.500;2023-08-31T04:44:46;4.55;;;1.80;;
81864;SDS011;71313;43.514;1.500;2023-08-31T04:47:11;2.72;;;1.60;;
81864;SDS011;71313;43.514;1.500;2023-08-31T04:49:37;3.42;;;1.80;;
81864;SDS011;71313;43.514;1.500;2023-08-31T04:52:02;2.55;;;1.30;;
81864;SDS011;71313;43.514;1.500;2023-08-31T04:54:28;3.55;;;1.42;;
81864;SDS011;71313;43.514;1.500;2023-08-31T04:56:53;3.10;;;1.48;;
81864;SDS011;71313;43.514;1.500;2023-08-31T04:59:19;2.17;;;1.20;;
81864;SDS011;71313;43.514;1.500;2023-08-31T05:01:44;3.22;;;1.60;;
81864;SDS011;71313;43.514;1.500;2023-08-31T05:04:09;2.67;;;1.48;;
81864;SDS011;71313;43.514;1.500;2023-08-31T05:06:35;3.10;;;1.45;;
81864;SDS011;71313;43.514;1.500;2023-08-31T05:09:00;2.38;;;1.40;;
81864;SDS011;71313;43.514;1.500;2023-08-31T05:11:25;3.97;;;1.60;;
81864;SDS011;71313;43.514;1.500;2023-08-31T05:13:51;2.17;;;1.27;;
81864;SDS011;71313;43.514;1.500;2023-08-31T05:16:16;2.92;;;1.55;;
81864;SDS011;71313;43.514;1.500;2023-08-31T05:18:41;3.38;;;1.50;;
81864;SDS011;71313;43.514;1.500;2023-08-31T05:21:07;4.68;;;1.48;;
81864;SDS011;71313;43.514;1.500;2023-08-31T05:23:33;2.20;;;1.40;;
81864;SDS011;71313;43.514;1.500;2023-08-31T05:25:58;2.50;;;1.40;;
81864;SDS011;71313;43.514;1.500;2023-08-31T05:28:24;2.42;;;1.38;;
81864;SDS011;71313;43.514;1.500;2023-08-31T05:30:49;3.83;;;1.55;;
81864;SDS011;71313;43.514;1.500;2023-08-31T05:33:16;2.33;;;1.48;;
81864;SDS011;71313;43.514;1.500;2023-08-31T05:35:42;4.22;;;1.70;;
81864;SDS011;71313;43.514;1.500;2023-08-31T05:38:07;3.97;;;1.55;;
81864;SDS011;71313;43.514;1.500;2023-08-31T05:40:33;3.10;;;1.77;;
81864;SDS011;71313;43.514;1.500;2023-08-31T05:42:58;3.15;;;1.40;;
81864;SDS011;71313;43.514;1.500;2023-08-31T05:45:24;2.55;;;1.48;;
81864;SDS011;71313;43.514;1.500;2023-08-31T05:47:49;2.10;;;1.40;;
81864;SDS011;71313;43.514;1.500;2023-08-31T05:50:14;3.95;;;1.90;;
81864;SDS011;71313;43.514;1.500;2023-08-31T05:52:40;3.90;;;1.52;;
81864;SDS011;71313;43.514;1.500;2023-08-31T05:55:09;3.25;;;1.40;;
81864;SDS011;71313;43.514;1.500;2023-08-31T05:57:35;5.22;;;1.55;;
81864;SDS011;71313;43.514;1.500;2023-08-31T06:00:00;2.65;;;1.65;;
81864;SDS011;71313;43.514;1.500;2023-08-31T06:02:26;3.13;;;1.52;;
81864;SDS011;71313;43.514;1.500;2023-08-31T06:04:51;3.30;;;1.80;;
81864;SDS011;71313;43.514;1.500;2023-08-31T06:07:17;5.20;;;1.42;;
81864;SDS011;71313;43.514;1.500;2023-08-31T06:09:42;3.08;;;1.45;;
81864;SDS011;71313;43.514;1.500;2023-08-31T06:12:08;2.85;;;1.35;;
81864;SDS011;71313;43.514;1.500;2023-08-31T06:14:33;5.78;;;1.80;;
81864;SDS011;71313;43.514;1.500;2023-08-31T06:16:58;3.40;;;1.88;;
81864;SDS011;71313;43.514;1.500;2023-08-31T06:19:24;4.10;;;1.55;;
81864;SDS011;71313;43.514;1.500;2023-08-31T06:21:49;5.57;;;1.80;;
81864;SDS011;71313;43.514;1.500;2023-08-31T06:24:15;3.47;;;1.48;;
81864;SDS011;71313;43.514;1.500;2023-08-31T06:26:40;3.60;;;1.40;;
81864;SDS011;71313;43.514;1.500;2023-08-31T06:29:06;3.55;;;1.70;;
81864;SDS011;71313;43.514;1.500;2023-08-31T06:31:34;4.30;;;1.80;;
81864;SDS011;71313;43.514;1.500;2023-08-31T06:33:59;5.72;;;1.70;;
81864;SDS011;71313;43.514;1.500;2023-08-31T06:36:24;4.45;;;1.40;;
81864;SDS011;71313;43.514;1.500;2023-08-31T06:38:50;4.68;;;1.52;;
81864;SDS011;71313;43.514;1.500;2023-08-31T06:41:15;4.68;;;1.50;;
81864;SDS011;71313;43.514;1.500;2023-08-31T06:43:41;4.03;;;1.92;;
81864;SDS011;71313;43.514;1.500;2023-08-31T06:46:06;3.25;;;1.67;;
81864;SDS011;71313;43.514;1.500;2023-08-31T06:48:32;3.58;;;1.50;;
81864;SDS011;71313;43.514;1.500;2023-08-31T06:50:57;4.60;;;1.80;;
81864;SDS011;71313;43.514;1.500;2023-08-31T06:53:22;2.55;;;1.45;;
81864;SDS011;71313;43.514;1.500;2023-08-31T06:55:48;3.55;;;1.40;;
81864;SDS011;71313;43.514;1.500;2023-08-31T06:58:14;4.90;;;1.60;;
81864;SDS011;71313;43.514;1.500;2023-08-31T07:00:39;4.85;;;1.67;;
81864;SDS011;71313;43.514;1.500;2023-08-31T07:03:05;4.78;;;1.45;;
81864;SDS011;71313;43.514;1.500;2023-08-31T07:05:33;3.97;;;1.70;;
81864;SDS011;71313;43.514;1.500;2023-08-31T07:08:02;5.78;;;1.70;;
81864;SDS011;71313;43.514;1.500;2023-08-31T07:10:28;4.90;;;1.95;;
81864;SDS011;71313;43.514;1.500;2023-08-31T07:12:53;3.33;;;1.50;;
81864;SDS011;71313;43.514;1.500;2023-08-31T07:15:18;3.53;;;1.65;;
81864;SDS011;71313;43.514;1.500;2023-08-31T07:17:44;4.18;;;1.60;;
81864;SDS011;71313;43.514;1.500;2023-08-31T07:20:11;4.75;;;1.60;;
81864;SDS011;71313;43.514;1.500;2023-08-31T07:22:37;3.30;;;1.50;;
81864;SDS011;71313;43.514;1.500;2023-08-31T07:25:03;3.53;;;1.83;;
81864;SDS011;71313;43.514;1.500;2023-08-31T07:27:29;4.20;;;1.45;;
81864;SDS011;71313;43.514;1.500;2023-08-31T07:29:55;4.07;;;2.00;;
81864;SDS011;71313;43.514;1.500;2023-08-31T07:32:20;12.32;;;1.90;;
81864;SDS011;71313;43.514;1.500;2023-08-31T07:34:45;6.85;;;2.00;;
81864;SDS011;71313;43.514;1.500;2023-08-31T07:37:11;4.15;;;1.95;;
81864;SDS011;71313;43.514;1.500;2023-08-31T07:39:36;4.20;;;1.65;;
81864;SDS011;71313;43.514;1.500;2023-08-31T07:42:02;5.60;;;1.90;;
81864;SDS011;71313;43.514;1.500;2023-08-31T07:44:27;4.53;;;1.67;;
81864;SDS011;71313;43.514;1.500;2023-08-31T07:46:53;3.90;;;1.70;;
81864;SDS011;71313;43.514;1.500;2023-08-31T07:49:18;6.00;;;1.63;;
81864;SDS011;71313;43.514;1.500;2023-08-31T07:51:43;5.28;;;1.70;;
81864;SDS011;71313;43.514;1.500;2023-08-31T07:54:09;7.22;;;1.77;;
81864;SDS011;71313;43.514;1.500;2023-08-31T07:56:34;5.72;;;1.60;;
81864;SDS011;71313;43.514;1.500;2023-08-31T07:59:00;5.88;;;1.75;;
81864;SDS011;71313;43.514;1.500;2023-08-31T08:01:25;4.50;;;1.75;;
81864;SDS011;71313;43.514;1.500;2023-08-31T08:03:50;5.15;;;1.85;;
81864;SDS011;71313;43.514;1.500;2023-08-31T08:06:16;3.80;;;1.70;;
81864;SDS011;71313;43.514;1.500;2023-08-31T08:08:41;6.03;;;1.80;;
81864;SDS011;71313;43.514;1.500;2023-08-31T08:11:06;5.07;;;1.67;;
81864;SDS011;71313;43.514;1.500;2023-08-31T08:13:32;5.00;;;1.90;;
81864;SDS011;71313;43.514;1.500;2023-08-31T08:15:57;4.95;;;1.70;;
81864;SDS011;71313;43.514;1.500;2023-08-31T08:18:22;5.30;;;1.80;;
81864;SDS011;71313;43.514;1.500;2023-08-31T08:20:49;6.15;;;1.88;;
81864;SDS011;71313;43.514;1.500;2023-08-31T08:23:15;6.40;;;2.00;;
81864;SDS011;71313;43.514;1.500;2023-08-31T08:25:41;4.93;;;1.90;;
81864;SDS011;71313;43.514;1.500;2023-08-31T08:28:06;4.78;;;1.90;;
81864;SDS011;71313;43.514;1.500;2023-08-31T08:30:31;3.47;;;1.70;;
81864;SDS011;71313;43.514;1.500;2023-08-31T08:32:57;6.13;;;1.73;;
81864;SDS011;71313;43.514;1.500;2023-08-31T08:35:24;8.82;;;2.28;;
81864;SDS011;71313;43.514;1.500;2023-08-31T08:37:49;9.07;;;1.88;;
81864;SDS011;71313;43.514;1.500;2023-08-31T08:40:15;8.20;;;1.88;;
81864;SDS011;71313;43.514;1.500;2023-08-31T08:42:41;11.23;;;2.15;;
81864;SDS011;71313;43.514;1.500;2023-08-31T08:45:08;7.35;;;2.00;;
81864;SDS011;71313;43.514;1.500;2023-08-31T08:47:38;5.97;;;1.90;;
81864;SDS011;71313;43.514;1.500;2023-08-31T08:50:05;10.45;;;2.08;;
81864;SDS011;71313;43.514;1.500;2023-08-31T08:52:31;4.22;;;1.70;;
81864;SDS011;71313;43.514;1.500;2023-08-31T08:54:56;8.88;;;4.10;;
81864;SDS011;71313;43.514;1.500;2023-08-31T08:57:23;7.30;;;2.65;;
81864;SDS011;71313;43.514;1.500;2023-08-31T08:59:49;9.80;;;3.80;;
81864;SDS011;71313;43.514;1.500;2023-08-31T09:02:14;9.93;;;3.47;;
81864;SDS011;71313;43.514;1.500;2023-08-31T09:04:40;7.32;;;3.15;;
81864;SDS011;71313;43.514;1.500;2023-08-31T09:07:05;9.68;;;4.28;;
81864;SDS011;71313;43.514;1.500;2023-08-31T09:09:31;9.75;;;4.45;;
81864;SDS011;71313;43.514;1.500;2023-08-31T09:11:57;10.68;;;3.20;;
81864;SDS011;71313;43.514;1.500;2023-08-31T09:14:31;8.88;;;3.45;;
81864;SDS011;71313;43.514;1.500;2023-08-31T09:16:56;6.50;;;3.05;;
81864;SDS011;71313;43.514;1.500;2023-08-31T09:19:22;8.20;;;3.58;;
81864;SDS011;71313;43.514;1.500;2023-08-31T09:21:49;10.43;;;3.53;;
81864;SDS011;71313;43.514;1.500;2023-08-31T09:24:16;8.13;;;3.45;;
81864;SDS011;71313;43.514;1.500;2023-08-31T09:26:45;9.80;;;4.00;;
81864;SDS011;71313;43.514;1.500;2023-08-31T09:29:12;9.25;;;4.68;;
81864;SDS011;71313;43.514;1.500;2023-08-31T09:31:38;8.60;;;4.40;;
81864;SDS011;71313;43.514;1.500;2023-08-31T09:34:06;8.15;;;3.80;;
81864;SDS011;71313;43.514;1.500;2023-08-31T09:36:32;12.90;;;4.45;;
81864;SDS011;71313;43.514;1.500;2023-08-31T09:38:58;12.10;;;4.30;;
81864;SDS011;71313;43.514;1.500;2023-08-31T09:41:23;8.10;;;3.70;;
81864;SDS011;71313;43.514;1.500;2023-08-31T09:43:49;15.38;;;5.03;;
81864;SDS011;71313;43.514;1.500;2023-08-31T09:46:14;12.10;;;4.32;;
81864;SDS011;71313;43.514;1.500;2023-08-31T09:48:41;8.93;;;4.13;;
81864;SDS011;71313;43.514;1.500;2023-08-31T09:51:07;10.75;;;5.20;;
81864;SDS011;71313;43.514;1.500;2023-08-31T09:53:35;8.52;;;4.70;;
81864;SDS011;71313;43.514;1.500;2023-08-31T09:56:02;11.25;;;5.47;;
81864;SDS011;71313;43.514;1.500;2023-08-31T09:58:30;11.57;;;4.82;;
81864;SDS011;71313;43.514;1.500;2023-08-31T10:00:56;9.63;;;4.30;;
81864;SDS011;71313;43.514;1.500;2023-08-31T10:03:22;11.93;;;4.63;;
81864;SDS011;71313;43.514;1.500;2023-08-31T10:05:49;9.63;;;4.22;;
81864;SDS011;71313;43.514;1.500;2023-08-31T10:08:15;9.48;;;4.38;;
81864;SDS011;71313;43.514;1.500;2023-08-31T10:10:41;9.80;;;4.07;;
81864;SDS011;71313;43.514;1.500;2023-08-31T10:13:07;9.82;;;3.92;;
81864;SDS011;71313;43.514;1.500;2023-08-31T10:15:33;8.43;;;3.95;;
81864;SDS011;71313;43.514;1.500;2023-08-31T10:18:01;11.02;;;4.20;;
81864;SDS011;71313;43.514;1.500;2023-08-31T10:20:28;9.30;;;4.15;;
81864;SDS011;71313;43.514;1.500;2023-08-31T10:22:57;10.93;;;4.32;;
81864;SDS011;71313;43.514;1.500;2023-08-31T10:25:23;8.38;;;3.47;;
81864;SDS011;71313;43.514;1.500;2023-08-31T10:27:49;6.88;;;3.45;;
81864;SDS011;71313;43.514;1.500;2023-08-31T10:38:13;5.32;;;3.60;;
81864;SDS011;71313;43.514;1.500;2023-08-31T10:40:39;7.72;;;3.42;;
81864;SDS011;71313;43.514;1.500;2023-08-31T10:43:14;8.70;;;4.55;;
81864;SDS011;71313;43.514;1.500;2023-08-31T10:45:43;21.65;;;10.60;;
81864;SDS011;71313;43.514;1.500;2023-08-31T10:48:09;23.67;;;12.02;;
81864;SDS011;71313;43.514;1.500;2023-08-31T10:50:40;21.52;;;8.00;;
81864;SDS011;71313;43.514;1.500;2023-08-31T10:53:08;19.88;;;8.93;;
81864;SDS011;71313;43.514;1.500;2023-08-31T10:55:34;17.30;;;9.75;;
81864;SDS011;71313;43.514;1.500;2023-08-31T10:57:59;39.42;;;17.85;;
81864;SDS011;71313;43.514;1.500;2023-08-31T11:00:46;39.45;;;18.20;;
81864;SDS011;71313;43.514;1.500;2023-08-31T11:03:21;39.47;;;19.45;;
81864;SDS011;71313;43.514;1.500;2023-08-31T11:05:53;44.20;;;18.65;;
81864;SDS011;71313;43.514;1.500;2023-08-31T11:08:22;66.38;;;33.53;;
81864;SDS011;71313;43.514;1.500;2023-08-31T11:10:48;56.83;;;29.13;;
81864;SDS011;71313;43.514;1.500;2023-08-31T11:13:20;65.40;;;33.55;;
81864;SDS011;71313;43.514;1.500;2023-08-31T11:15:47;49.55;;;23.52;;
81864;SDS011;71313;43.514;1.500;2023-08-31T11:18:13;45.78;;;23.45;;
81864;SDS011;71313;43.514;1.500;2023-08-31T11:20:42;44.20;;;23.65;;
81864;SDS011;71313;43.514;1.500;2023-08-31T11:23:08;44.17;;;22.67;;
81864;SDS011;71313;43.514;1.500;2023-08-31T11:25:34;41.20;;;19.65;;
81864;SDS011;71313;43.514;1.500;2023-08-31T11:28:00;46.90;;;22.27;;
81864;SDS011;71313;43.514;1.500;2023-08-31T11:30:29;42.08;;;20.58;;
81864;SDS011;71313;43.514;1.500;2023-08-31T11:33:07;35.08;;;17.88;;
81864;SDS011;71313;43.514;1.500;2023-08-31T11:35:37;22.77;;;11.07;;
81864;SDS011;71313;43.514;1.500;2023-08-31T11:38:06;16.30;;;8.07;;
81864;SDS011;71313;43.514;1.500;2023-08-31T11:40:31;20.52;;;7.32;;
81864;SDS011;71313;43.514;1.500;2023-08-31T11:42:57;16.73;;;7.50;;
81864;SDS011;71313;43.514;1.500;2023-08-31T11:45:25;15.52;;;6.50;;
81864;SDS011;71313;43.514;1.500;2023-08-31T11:47:51;14.57;;;6.32;;
81864;SDS011;71313;43.514;1.500;2023-08-31T11:50:18;18.13;;;7.70;;
81864;SDS011;71313;43.514;1.500;2023-08-31T11:52:44;12.27;;;6.80;;
81864;SDS011;71313;43.514;1.500;2023-08-31T11:55:10;16.83;;;6.65;;
81864;SDS011;71313;43.514;1.500;2023-08-31T11:57:39;18.52;;;7.78;;
81864;SDS011;71313;43.514;1.500;2023-08-31T12:00:05;16.17;;;7.38;;
81864;SDS011;71313;43.514;1.500;2023-08-31T12:02:34;17.23;;;7.68;;
81864;SDS011;71313;43.514;1.500;2023-08-31T12:05:01;18.38;;;7.47;;
81864;SDS011;71313;43.514;1.500;2023-08-31T12:07:26;22.80;;;7.95;;
81864;SDS011;71313;43.514;1.500;2023-08-31T12:09:51;20.88;;;7.70;;
81864;SDS011;71313;43.514;1.500;2023-08-31T12:12:20;18.33;;;8.15;;
81864;SDS011;71313;43.514;1.500;2023-08-31T12:14:46;19.33;;;8.45;;
81864;SDS011;71313;43.514;1.500;2023-08-31T12:17:12;18.33;;;8.73;;
81864;SDS011;71313;43.514;1.500;2023-08-31T12:19:38;16.48;;;8.25;;
81864;SDS011;71313;43.514;1.500;2023-08-31T12:22:04;16.35;;;7.88;;
81864;SDS011;71313;43.514;1.500;2023-08-31T12:24:36;16.02;;;7.50;;
81864;SDS011;71313;43.514;1.500;2023-08-31T12:27:03;21.48;;;8.35;;
81864;SDS011;71313;43.514;1.500;2023-08-31T12:29:30;16.52;;;7.70;;
81864;SDS011;71313;43.514;1.500;2023-08-31T12:31:55;15.13;;;7.60;;
81864;SDS011;71313;43.514;1.500;2023-08-31T12:34:21;23.55;;;7.53;;
81864;SDS011;71313;43.514;1.500;2023-08-31T12:36:46;18.85;;;7.95;;
81864;SDS011;71313;43.514;1.500;2023-08-31T12:39:12;23.50;;;7.90;;
81864;SDS011;71313;43.514;1.500;2023-08-31T12:41:38;23.92;;;7.97;;
81864;SDS011;71313;43.514;1.500;2023-08-31T12:44:07;22.08;;;7.35;;
81864;SDS011;71313;43.514;1.500;2023-08-31T12:46:33;22.23;;;7.43;;
81864;SDS011;71313;43.514;1.500;2023-08-31T12:49:01;21.30;;;7.63;;
81864;SDS011;71313;43.514;1.500;2023-08-31T12:51:29;17.65;;;7.32;;
81864;SDS011;71313;43.514;1.500;2023-08-31T12:53:55;19.55;;;7.20;;
81864;SDS011;71313;43.514;1.500;2023-08-31T12:56:21;18.27;;;7.43;;
81864;SDS011;71313;43.514;1.500;2023-08-31T12:58:50;17.05;;;6.95;;
81864;SDS011;71313;43.514;1.500;2023-08-31T13:01:18;23.73;;;7.25;;
81864;SDS011;71313;43.514;1.500;2023-08-31T13:03:44;28.30;;;7.45;;
81864;SDS011;71313;43.514;1.500;2023-08-31T13:06:10;20.83;;;6.93;;
81864;SDS011;71313;43.514;1.500;2023-08-31T13:08:36;19.95;;;6.93;;
81864;SDS011;71313;43.514;1.500;2023-08-31T13:11:02;17.02;;;6.60;;
81864;SDS011;71313;43.514;1.500;2023-08-31T13:13:29;16.77;;;5.97;;
81864;SDS011;71313;43.514;1.500;2023-08-31T13:15:54;20.90;;;6.82;;
81864;SDS011;71313;43.514;1.500;2023-08-31T13:18:19;19.52;;;6.78;;
81864;SDS011;71313;43.514;1.500;2023-08-31T13:20:48;17.17;;;6.90;;
81864;SDS011;71313;43.514;1.500;2023-08-31T13:23:15;14.27;;;7.03;;
81864;SDS011;71313;43.514;1.500;2023-08-31T13:25:41;20.88;;;7.38;;
81864;SDS011;71313;43.514;1.500;2023-08-31T13:28:06;22.88;;;7.63;;
81864;SDS011;71313;43.514;1.500;2023-08-31T13:30:31;24.88;;;7.72;;
81864;SDS011;71313;43.514;1.500;2023-08-31T13:32:57;17.58;;;7.68;;
81864;SDS011;71313;43.514;1.500;2023-08-31T13:35:22;19.55;;;7.88;;
81864;SDS011;71313;43.514;1.500;2023-08-31T13:37:47;17.30;;;7.43;;
81864;SDS011;71313;43.514;1.500;2023-08-31T13:40:13;21.33;;;8.00;;
81864;SDS011;71313;43.514;1.500;2023-08-31T13:42:47;24.35;;;8.52;;
81864;SDS011;71313;43.514;1.500;2023-08-31T13:45:17;18.45;;;8.63;;
81864;SDS011;71313;43.514;1.500;2023-08-31T13:47:43;20.17;;;9.65;;
81864;SDS011;71313;43.514;1.500;2023-08-31T13:50:12;20.88;;;9.57;;
81864;SDS011;71313;43.514;1.500;2023-08-31T13:52:37;18.25;;;9.45;;
81864;SDS011;71313;43.514;1.500;2023-08-31T13:55:03;21.35;;;9.75;;
81864;SDS011;71313;43.514;1.500;2023-08-31T13:57:28;22.27;;;9.77;;
81864;SDS011;71313;43.514;1.500;2023-08-31T13:59:54;17.67;;;9.40;;
81864;SDS011;71313;43.514;1.500;2023-08-31T14:02:19;20.23;;;9.65;;
81864;SDS011;71313;43.514;1.500;2023-08-31T14:04:45;21.00;;;9.68;;
81864;SDS011;71313;43.514;1.500;2023-08-31T14:07:10;19.67;;;9.15;;
81864;SDS011;71313;43.514;1.500;2023-08-31T14:09:35;19.25;;;9.48;;
81864;SDS011;71313;43.514;1.500;2023-08-31T14:12:01;26.63;;;9.32;;
81864;SDS011;71313;43.514;1.500;2023-08-31T14:14:26;20.65;;;8.63;;
81864;SDS011;71313;43.514;1.500;2023-08-31T14:16:52;22.92;;;9.00;;
81864;SDS011;71313;43.514;1.500;2023-08-31T14:19:17;22.48;;;8.05;;
81864;SDS011;71313;43.514;1.500;2023-08-31T14:21:45;22.58;;;8.65;;
81864;SDS011;71313;43.514;1.500;2023-08-31T14:24:10;19.30;;;7.88;;
81864;SDS011;71313;43.514;1.500;2023-08-31T14:26:36;15.20;;;7.90;;
81864;SDS011;71313;43.514;1.500;2023-08-31T14:29:01;16.58;;;7.57;;
81864;SDS011;71313;43.514;1.500;2023-08-31T14:31:26;17.52;;;8.05;;
81864;SDS011;71313;43.514;1.500;2023-08-31T14:33:52;17.58;;;7.35;;
81864;SDS011;71313;43.514;1.500;2023-08-31T14:36:17;16.88;;;6.80;;
81864;SDS011;71313;43.514;1.500;2023-08-31T14:38:43;16.35;;;6.60;;
81864;SDS011;71313;43.514;1.500;2023-08-31T14:41:10;20.38;;;7.55;;
81864;SDS011;71313;43.514;1.500;2023-08-31T14:43:36;10.18;;;6.20;;
81864;SDS011;71313;43.514;1.500;2023-08-31T14:46:01;13.98;;;7.05;;
81864;SDS011;71313;43.514;1.500;2023-08-31T14:48:28;16.42;;;6.45;;
81864;SDS011;71313;43.514;1.500;2023-08-31T14:50:54;14.60;;;6.22;;